createdAt,value
2023-04-26T00:00:00.998Z,101930
2023-04-26T00:05:01.000Z,101940
2023-04-26T00:10:00.601Z,101940
2023-04-26T00:15:00.601Z,101940
2023-04-26T00:20:00.545Z,101940
2023-04-26T00:25:00.537Z,101940
2023-04-26T00:30:00.510Z,101940
2023-04-26T00:35:02.326Z,101930
2023-04-26T00:40:00.478Z,101930
2023-04-26T00:45:00.853Z,101930
2023-04-26T00:50:00.823Z,101930
2023-04-26T00:55:01.508Z,101920
2023-04-26T01:00:01.095Z,101930
2023-04-26T01:05:00.525Z,101930
2023-04-26T01:10:00.512Z,101920
2023-04-26T01:15:00.752Z,101930
2023-04-26T01:20:00.501Z,101930
2023-04-26T01:25:03.391Z,101930
2023-04-26T01:30:00.658Z,101940
2023-04-26T01:35:00.928Z,101940
2023-04-26T01:40:00.563Z,101940
2023-04-26T01:45:00.566Z,101940
2023-04-26T01:50:00.468Z,101930
2023-04-26T01:55:00.608Z,101930
2023-04-26T02:00:01.077Z,101920
2023-04-26T02:05:00.526Z,101930
2023-04-26T02:10:00.494Z,101930
2023-04-26T02:15:00.494Z,101940
2023-04-26T02:20:00.497Z,101940
2023-04-26T02:25:00.517Z,101920
2023-04-26T02:30:00.477Z,101920
2023-04-26T02:35:00.493Z,101930
2023-04-26T02:40:00.534Z,101930
2023-04-26T02:45:00.512Z,101930
2023-04-26T02:50:00.473Z,101930
2023-04-26T02:55:01.932Z,101920
2023-04-26T03:00:01.107Z,101920
2023-04-26T03:05:00.595Z,101920
2023-04-26T03:10:00.502Z,101910
2023-04-26T03:15:00.473Z,101910
2023-04-26T03:20:02.553Z,101910
2023-04-26T03:25:00.680Z,101910
2023-04-26T03:30:00.494Z,101910
2023-04-26T03:35:00.510Z,101900
2023-04-26T03:40:00.546Z,101900
2023-04-26T03:45:00.503Z,101900
2023-04-26T03:50:00.527Z,101900
2023-04-26T03:55:00.569Z,101900
2023-04-26T04:00:02.752Z,101900
2023-04-26T04:05:00.882Z,101900
2023-04-26T04:10:00.539Z,101900
2023-04-26T04:15:00.950Z,101890
2023-04-26T04:20:01.861Z,101900
2023-04-26T04:25:00.599Z,101900
2023-04-26T04:30:00.584Z,101900
2023-04-26T04:35:00.753Z,101900
2023-04-26T04:40:00.577Z,101910
2023-04-26T04:45:00.514Z,101900
2023-04-26T04:50:00.513Z,101900
2023-04-26T04:55:00.496Z,101900
2023-04-26T05:00:01.024Z,101910
2023-04-26T05:05:00.577Z,101920
2023-04-26T05:10:00.548Z,101920
2023-04-26T05:15:00.512Z,101920
2023-04-26T05:20:00.518Z,101930
2023-04-26T05:25:00.520Z,101930
2023-04-26T05:30:00.464Z,101930
2023-04-26T05:35:00.467Z,101930
2023-04-26T05:40:00.665Z,101940
2023-04-26T05:45:00.555Z,101940
2023-04-26T05:50:00.495Z,101940
2023-04-26T05:55:00.699Z,101940
2023-04-26T06:00:03.655Z,101940
2023-04-26T06:05:00.587Z,101940
2023-04-26T06:10:00.589Z,101940
2023-04-26T06:15:00.479Z,101940
2023-04-26T06:20:00.846Z,101940
2023-04-26T06:25:00.567Z,101950
2023-04-26T06:30:00.648Z,101960
2023-04-26T06:35:00.562Z,101950
2023-04-26T06:40:00.572Z,101960
2023-04-26T06:45:00.452Z,101960
2023-04-26T06:50:00.670Z,101960
2023-04-26T06:55:01.164Z,101970
2023-04-26T07:00:00.943Z,101970
2023-04-26T07:05:00.770Z,101970
2023-04-26T07:10:00.560Z,101970
2023-04-26T07:15:00.496Z,101970
2023-04-26T07:20:00.486Z,101970
2023-04-26T07:25:00.534Z,101970
2023-04-26T07:30:00.482Z,101970
2023-04-26T07:35:01.903Z,101970
2023-04-26T07:40:00.530Z,101960
2023-04-26T07:45:00.526Z,101970
2023-04-26T07:50:00.604Z,101970
2023-04-26T07:55:00.502Z,101980
2023-04-26T08:00:02.493Z,101980
2023-04-26T08:05:00.988Z,101990
2023-04-26T08:10:00.496Z,101980
2023-04-26T08:15:00.846Z,101990
2023-04-26T08:20:00.493Z,101990
2023-04-26T08:25:00.597Z,101990
2023-04-26T08:30:00.475Z,101990
2023-04-26T08:35:00.553Z,101980
2023-04-26T08:40:00.656Z,101980
2023-04-26T08:45:00.590Z,101980
2023-04-26T08:50:01.092Z,101980
2023-04-26T08:55:01.685Z,101980
2023-04-26T09:00:03.393Z,101980
2023-04-26T09:05:00.797Z,101970
2023-04-26T09:10:03.280Z,101970
2023-04-26T09:15:00.836Z,101970
2023-04-26T09:20:01.420Z,101970
2023-04-26T09:25:02.295Z,101970
2023-04-26T09:30:11.460Z,101960
2023-04-26T09:35:00.460Z,101970
2023-04-26T09:40:00.493Z,101970
2023-04-26T09:45:08.143Z,101980
2023-04-26T09:50:00.494Z,101980
2023-04-26T09:55:00.494Z,101980
2023-04-26T10:00:05.815Z,101970
2023-04-26T10:05:00.975Z,101970
2023-04-26T10:10:01.383Z,101970
2023-04-26T10:15:02.733Z,101970
2023-04-26T10:20:01.738Z,101970
2023-04-26T10:25:00.586Z,101980
2023-04-26T10:30:01.524Z,101970
2023-04-26T10:35:09.605Z,101970
2023-04-26T10:40:20.371Z,101970
2023-04-26T10:45:20.371Z,101970
2023-04-26T10:50:05.628Z,101970
2023-04-26T10:55:00.785Z,101970
2023-04-26T11:00:07.913Z,101970
2023-04-26T11:05:01.699Z,101960
2023-04-26T11:10:00.521Z,101960
2023-04-26T11:15:00.489Z,101960
2023-04-26T11:20:07.840Z,101950
2023-04-26T11:25:00.488Z,101950
2023-04-26T11:30:02.621Z,101950
2023-04-26T11:35:00.460Z,101950
2023-04-26T11:40:00.548Z,101950
2023-04-26T11:45:00.542Z,101950
2023-04-26T11:50:00.882Z,101950
2023-04-26T11:55:02.637Z,101950
2023-04-26T12:00:10.070Z,101950
2023-04-26T12:05:00.701Z,101960
2023-04-26T12:10:14.539Z,101950
2023-04-26T12:15:00.515Z,101950
2023-04-26T12:20:07.931Z,101950
2023-04-26T12:25:08.235Z,101950
2023-04-26T12:30:00.480Z,101950
2023-04-26T12:35:00.460Z,101960
2023-04-26T12:40:00.524Z,101960
2023-04-26T12:45:00.476Z,101960
2023-04-26T12:50:00.516Z,101950
2023-04-26T12:55:00.521Z,101940
2023-04-26T13:00:00.894Z,101940
2023-04-26T13:05:01.353Z,101950
2023-04-26T13:10:01.215Z,101950
2023-04-26T13:15:00.537Z,101950
2023-04-26T13:20:01.016Z,101950
2023-04-26T13:25:00.579Z,101950
2023-04-26T13:30:00.482Z,101940
2023-04-26T13:35:00.554Z,101940
2023-04-26T13:40:00.560Z,101940
2023-04-26T13:45:00.502Z,101940
2023-04-26T13:50:00.618Z,101940
2023-04-26T13:55:00.542Z,101940
2023-04-26T14:00:02.000Z,101940
2023-04-26T14:05:00.703Z,101950
2023-04-26T14:10:00.548Z,101940
2023-04-26T14:15:00.492Z,101940
2023-04-26T14:20:00.523Z,101940
2023-04-26T14:25:00.502Z,101940
2023-04-26T14:30:00.505Z,101940
2023-04-26T14:35:00.473Z,101930
2023-04-26T14:40:00.549Z,101940
2023-04-26T14:45:00.590Z,101940
2023-04-26T14:50:00.474Z,101940
2023-04-26T14:55:02.917Z,101930
2023-04-26T15:00:00.814Z,101930
2023-04-26T15:05:00.904Z,101930
2023-04-26T15:10:00.496Z,101930
2023-04-26T15:15:00.911Z,101920
2023-04-26T15:20:00.534Z,101920
2023-04-26T15:25:00.652Z,101920
2023-04-26T15:30:01.447Z,101920
2023-04-26T15:35:00.669Z,101920
2023-04-26T15:40:00.485Z,101920
2023-04-26T15:45:00.672Z,101920
2023-04-26T15:50:01.464Z,101920
2023-04-26T15:55:01.422Z,101920
2023-04-26T16:00:01.064Z,101920
2023-04-26T16:05:00.711Z,101920
2023-04-26T16:10:00.500Z,101920
2023-04-26T16:15:00.490Z,101930
2023-04-26T16:20:01.820Z,101930
2023-04-26T16:25:01.188Z,101930
2023-04-26T16:30:00.541Z,101930
2023-04-26T16:35:00.485Z,101930
2023-04-26T16:40:00.675Z,101920
2023-04-26T16:45:00.521Z,101920
2023-04-26T16:50:00.749Z,101920
2023-04-26T16:55:00.496Z,101920
2023-04-26T17:00:00.993Z,101920
2023-04-26T17:05:00.595Z,101930
2023-04-26T17:10:00.497Z,101920
2023-04-26T17:15:02.953Z,101920
2023-04-26T17:20:00.463Z,101930
2023-04-26T17:25:00.548Z,101930
2023-04-26T17:30:00.534Z,101930
2023-04-26T17:35:00.501Z,101940
2023-04-26T17:40:00.558Z,101930
2023-04-26T17:45:00.494Z,101930
2023-04-26T17:50:00.480Z,101940
2023-04-26T17:55:00.485Z,101940
2023-04-26T18:00:01.128Z,101950
2023-04-26T18:05:00.645Z,101950
2023-04-26T18:10:00.496Z,101950
2023-04-26T18:15:00.534Z,101950
2023-04-26T18:20:00.487Z,101960
2023-04-26T18:25:00.482Z,101970
2023-04-26T18:30:00.519Z,101960
2023-04-26T18:35:00.485Z,101960
2023-04-26T18:40:00.556Z,101960
2023-04-26T18:45:00.471Z,101970
2023-04-26T18:50:00.661Z,101970
2023-04-26T18:55:00.668Z,101970
2023-04-26T19:00:01.820Z,101970
2023-04-26T19:05:00.862Z,101980
2023-04-26T19:10:00.863Z,101980
2023-04-26T19:15:00.467Z,101990
2023-04-26T19:20:00.531Z,102010
2023-04-26T19:25:00.662Z,102000
2023-04-26T19:30:00.496Z,102010
2023-04-26T19:35:00.484Z,102010
2023-04-26T19:40:00.525Z,102020
2023-04-26T19:45:00.575Z,102020
2023-04-26T19:50:00.589Z,102010
2023-04-26T19:55:00.470Z,102010
2023-04-26T20:00:02.226Z,102020
2023-04-26T20:05:00.474Z,102030
2023-04-26T20:10:00.478Z,102030
2023-04-26T20:15:00.464Z,102030
2023-04-26T20:20:00.470Z,102030
2023-04-26T20:25:00.530Z,102030
2023-04-26T20:30:00.790Z,102030
2023-04-26T20:35:00.502Z,102030
2023-04-26T20:40:01.171Z,102030
2023-04-26T20:45:02.160Z,102030
2023-04-26T20:50:00.506Z,102020
2023-04-26T20:55:00.536Z,102030
2023-04-26T21:00:01.169Z,102020
2023-04-26T21:05:00.531Z,102020
2023-04-26T21:10:00.479Z,102020
2023-04-26T21:15:00.550Z,102030
2023-04-26T21:20:00.519Z,102030
2023-04-26T21:25:00.477Z,102030
2023-04-26T21:30:00.471Z,102040
2023-04-26T21:35:00.494Z,102040
2023-04-26T21:40:00.532Z,102050
2023-04-26T21:45:00.476Z,102050
2023-04-26T21:50:00.499Z,102050
2023-04-26T21:55:00.547Z,102040
2023-04-26T22:00:01.104Z,102040
2023-04-26T22:05:00.473Z,102040
2023-04-26T22:10:00.559Z,102040
2023-04-26T22:15:00.486Z,102050
2023-04-26T22:20:00.554Z,102050
2023-04-26T22:25:00.516Z,102050
2023-04-26T22:30:06.286Z,102050
2023-04-26T22:35:00.505Z,102050
2023-04-26T22:40:00.582Z,102050
2023-04-26T22:45:00.495Z,102060
2023-04-26T22:50:00.720Z,102060
2023-04-26T22:55:00.498Z,102060
2023-04-26T23:00:02.101Z,102070
2023-04-26T23:05:00.604Z,102070
2023-04-26T23:10:00.628Z,102070
2023-04-26T23:15:00.816Z,102070
2023-04-26T23:20:00.485Z,102070
2023-04-26T23:25:00.459Z,102070
2023-04-26T23:30:00.651Z,102070
2023-04-26T23:35:00.550Z,102080
2023-04-26T23:40:00.526Z,102080
2023-04-26T23:45:00.498Z,102080
2023-04-26T23:50:00.488Z,102090
2023-04-26T23:55:00.472Z,102090
